Latest Weather Observations for Warruwi

IDD60801

Issued at 9:41 pm CST Tuesday 24 May 2022 (issued every 10 minutes, with the page automatically refreshed every 10 minutes)

About weather observations | Map of weather stations | Latest weather observations for NT | Other Formats
Station Details ID: 014401 Name: WARRUWI AIRPORT Lat: -11.65 Lon: 133.38 Height: 19.2 m
Data from the previous 72 hours. | See also: Recent months at Warruwi
Date/Time
CST
Temp
°C
App
Temp
°C
Dew
Point
°C
Rel
Hum
%
Delta-T
°C
Wind Press
QNH
hPa
Press
MSL
hPa
Rain since
9am
mm
Dir  Spd
km/h
Gust
km/h
Spd
kts
Gust
kts
24/09:30pm 26.2 30.8 22.5 80 2.5 NE 2 4 1 2 1013.7 1013.5 0.0
24/09:00pm 26.5 30.8 22.6 79 2.6 NE 4 6 2 3 1013.6 1013.4 0.0
24/08:30pm 26.7 31.3 22.5 78 2.8 NE 2 4 1 2 1013.6 1013.4 0.0
24/08:00pm 27.2 31.5 22.6 76 3.1 ENE 4 6 2 3 1013.2 1013.0 0.0
24/07:30pm 27.1 31.3 22.5 76 3.1 ENE 4 6 2 3 1012.8 1012.6 0.0
24/07:00pm 27.6 32.2 22.5 74 3.5 NE 2 7 1 4 1012.6 1012.4 0.0
24/06:30pm 28.2 32.4 22.4 71 3.9 NE 4 7 2 4 1012.0 1011.8 0.0
24/06:00pm 28.7 32.5 22.7 70 4.1 NE 7 13 4 7 1011.4 1011.2 0.0
24/05:30pm 29.5 33.2 22.5 66 4.8 NE 7 13 4 7 1011.0 1010.8 0.0
24/05:00pm 31.0 34.9 22.9 62 5.6 NE 7 13 4 7 1010.7 1010.5 0.0
24/04:30pm 31.0 34.0 22.0 58 6.1 NE 9 15 5 8 1010.6 1010.4 0.0
24/04:00pm 31.7 34.1 21.5 54 6.9 ENE 11 19 6 10 1010.5 1010.3 0.0
24/03:30pm 31.4 33.4 20.7 53 7.1 ENE 11 17 6 9 1010.5 1010.3 0.0
24/03:00pm 31.8 33.7 21.3 53 7.1 E 13 17 7 9 1010.6 1010.4 0.0
24/02:30pm 32.0 34.4 21.5 53 7.1 E 11 19 6 10 1010.8 1010.6 0.0
24/02:00pm 31.0 33.8 22.3 60 5.9 E 11 17 6 9 1011.2 1011.0 0.0
24/01:30pm 31.4 33.6 21.8 56 6.5 E 13 19 7 10 1011.5 1011.3 0.0
24/01:00pm 31.1 33.8 22.1 58 6.1 E 11 19 6 10 1012.0 1011.8 0.0
24/12:30pm 30.7 32.5 21.8 59 6.0 E 15 20 8 11 1012.6 1012.4 0.0
24/12:00pm 31.1 33.0 22.7 61 5.7 ESE 17 24 9 13 1012.9 1012.7 0.0
24/11:30am 30.2 32.3 22.4 63 5.3 E 15 22 8 12 1013.3 1013.1 0.0
24/11:00am 29.7 30.9 22.2 64 5.1 ESE 19 26 10 14 1013.5 1013.3 0.0
24/10:30am 30.1 32.4 22.8 65 5.0 ESE 15 22 8 12 1013.7 1013.5 0.0
24/10:00am 29.0 30.8 22.5 68 4.4 ESE 17 26 9 14 1013.8 1013.6 0.0
24/09:30am 28.5 30.4 22.7 71 3.9 ESE 17 26 9 14 1013.7 1013.5 0.0
24/09:00am 28.0 29.9 22.7 73 3.6 ESE 17 26 9 14 1013.5 1013.3 0.0
24/08:30am 27.2 29.3 22.4 75 3.2 ESE 15 26 8 14 1013.4 1013.2 0.0
24/08:00am 26.5 28.5 22.3 78 2.8 ESE 15 22 8 12 1013.2 1013.0 0.0
24/07:30am 25.8 28.1 22.1 80 2.5 ESE 13 20 7 11 1012.9 1012.7 0.0
24/07:00am 25.4 28.0 21.9 81 2.3 SE 11 17 6 9 1012.6 1012.4 0.0
24/06:30am 25.6 27.8 21.9 80 2.5 ESE 13 20 7 11 1012.3 1012.1 0.0
24/06:00am 25.8 27.6 21.9 79 2.6 ESE 15 24 8 13 1012.1 1011.9 0.0
24/05:30am 25.8 27.5 21.7 78 2.7 ESE 15 24 8 13 1011.8 1011.6 0.0
24/05:00am 26.0 27.3 21.7 77 2.9 ESE 17 24 9 13 1011.8 1011.6 0.0
24/04:30am 26.1 27.4 21.7 77 2.9 ESE 17 28 9 15 1011.8 1011.6 0.0
24/04:00am 26.2 27.2 21.8 77 2.9 ESE 19 32 10 17 1011.9 1011.7 0.0
24/03:30am 26.4 27.5 22.0 77 2.9 ESE 19 28 10 15 1012.0 1011.8 0.0
24/03:00am 26.5 27.8 22.3 78 2.8 ESE 19 28 10 15 1011.9 1011.7 0.0
24/02:30am 26.8 28.0 22.2 76 3.1 ESE 19 30 10 16 1011.8 1011.6 0.0
24/02:00am 27.0 28.5 22.0 74 3.4 ESE 17 28 9 15 1011.9 1011.7 0.0
24/01:30am 27.4 28.0 22.1 73 3.6 ESE 22 35 12 19 1012.2 1012.0 0.0
24/01:00am 27.6 28.2 22.1 72 3.7 ESE 22 32 12 17 1012.3 1012.1 0.0
24/12:30am 28.0 28.7 22.2 70 3.9 ESE 22 39 12 21 1012.3 1012.1 0.0
24/12:00am 28.5 29.2 23.0 72 3.8 ESE 24 33 13 18 1012.4 1012.2 0.0
 
Date/Time
CST
Temp
°C
App
Temp
°C
Dew
Point
°C
Rel
Hum
%
Delta-T
°C
Wind Press
QNH
hPa
Press
MSL
hPa
Rain since
9am
mm
Dir  Spd
km/h
Gust
km/h
Spd
kts
Gust
kts
23/11:30pm 28.6 32.0 24.6 79 2.8 E 15 22 8 12 1012.5 1012.3 0.0
23/11:00pm 28.7 32.4 24.5 78 2.9 E 13 20 7 11 1012.6 1012.4 0.0
23/10:30pm 28.7 32.5 24.0 76 3.3 E 11 22 6 12 1012.7 1012.5 0.0
23/10:00pm 28.3 33.2 24.3 79 2.8 ENE 6 15 3 8 1012.7 1012.5 0.0
23/09:30pm 27.5 32.5 23.9 81 2.5 ENE 4 7 2 4 1012.7 1012.5 0.0
23/09:00pm 27.6 32.5 23.6 79 2.7 NE 4 7 2 4 1012.5 1012.3 0.0
23/08:30pm 27.8 32.5 23.4 77 3.0 NE 4 6 2 3 1012.2 1012.0 0.0
23/08:00pm 28.0 32.7 23.4 76 3.2 NE 4 7 2 4 1011.7 1011.5 0.0
23/07:30pm 28.6 32.8 23.1 72 3.8 ENE 6 11 3 6 1011.3 1011.1 0.0
23/07:00pm 28.7 32.6 22.9 71 4.0 E 7 11 4 6 1011.0 1010.8 0.0
23/06:30pm 28.9 32.4 22.9 70 4.1 ENE 9 15 5 8 1010.8 1010.6 0.0
23/06:00pm 29.3 32.8 22.8 68 4.4 E 9 20 5 11 1010.5 1010.3 0.0
23/05:30pm 29.8 32.6 22.3 64 5.1 ENE 11 20 6 11 1010.1 1009.9 0.0
23/05:00pm 30.2 32.5 22.1 62 5.5 ENE 13 22 7 12 1009.9 1009.7 0.0
23/04:30pm 30.6 32.8 21.9 59 5.9 ENE 13 22 7 12 1009.6 1009.4 0.0
23/04:00pm 31.2 32.2 21.1 55 6.8 E 17 28 9 15 1009.5 1009.3 0.0
23/03:30pm 31.3 33.0 22.3 58 6.1 E 17 24 9 13 1009.6 1009.4 0.0
23/03:00pm 31.2 33.0 21.9 57 6.3 ENE 15 22 8 12 1009.9 1009.7 0.0
23/02:30pm 31.5 33.5 22.2 57 6.3 E 15 22 8 12 1010.2 1010.0 0.0
23/02:00pm 31.8 34.3 23.1 60 6.0 E 15 22 8 12 1010.6 1010.4 0.0
23/01:30pm 31.2 32.9 21.7 57 6.4 ENE 15 20 8 11 1011.0 1010.8 0.0
23/01:00pm 32.1 32.0 18.7 45 8.7 E 17 26 9 14 1011.4 1011.2 0.0
23/12:30pm 32.1 31.9 19.4 47 8.3 ESE 19 24 10 13 1011.8 1011.6 0.0
23/12:00pm 31.7 32.7 20.3 50 7.6 E 15 22 8 12 1012.2 1012.0 0.0
23/11:30am 30.9 31.6 19.6 51 7.4 ESE 15 22 8 12 1012.6 1012.4 0.0
23/11:00am 30.1 29.9 19.8 54 6.8 E 20 26 11 14 1013.1 1012.9 0.0
23/10:30am 29.8 30.0 20.1 56 6.4 ESE 19 24 10 13 1013.3 1013.1 0.0
23/10:00am 29.1 29.4 20.5 59 5.7 ESE 19 28 10 15 1013.4 1013.2 0.0
23/09:30am 28.7 29.9 21.5 65 4.8 ESE 17 24 9 13 1013.3 1013.1 0.0
23/09:00am 27.9 28.6 21.2 67 4.5 E 19 28 10 15 1013.2 1013.0 0.4
23/08:30am 27.3 27.9 21.1 69 4.1 ESE 19 28 10 15 1013.1 1012.9 0.4
23/08:00am 26.8 28.6 21.1 71 3.8 ESE 13 22 7 12 1013.0 1012.8 0.4
23/07:30am 26.0 27.8 21.2 75 3.2 ESE 13 20 7 11 1012.6 1012.4 0.4
23/07:00am 25.7 27.3 20.7 74 3.3 ESE 13 22 7 12 1012.6 1012.4 0.4
23/06:30am 25.4 27.5 20.9 76 3.0 ESE 11 17 6 9 1012.2 1012.0 0.4
23/06:00am 25.8 27.3 20.6 73 3.4 ESE 13 20 7 11 1011.8 1011.6 0.4
23/05:30am 26.1 27.2 20.4 71 3.7 ESE 15 24 8 13 1011.5 1011.3 0.4
23/05:00am 26.3 27.1 20.6 71 3.7 ESE 17 24 9 13 1011.2 1011.0 0.4
23/04:30am 26.3 26.8 20.8 71 3.6 E 19 28 10 15 1010.8 1010.6 0.4
23/04:00am 26.3 27.3 21.1 73 3.4 ESE 17 24 9 13 1011.0 1010.8 0.4
23/03:30am 26.5 27.2 21.5 74 3.3 ESE 20 33 11 18 1011.0 1010.8 0.4
23/03:00am 26.6 27.3 21.6 74 3.3 ESE 20 32 11 17 1010.9 1010.7 0.4
23/02:30am 26.6 27.6 21.8 75 3.2 ESE 19 26 10 14 1011.2 1011.0 0.4
23/02:00am 26.9 27.8 21.9 74 3.3 ESE 20 33 11 18 1011.4 1011.2 0.4
23/01:30am 27.0 28.0 22.2 75 3.2 ESE 20 30 11 16 1011.6 1011.4 0.4
23/01:00am 26.4 27.8 22.9 81 2.4 ESE 20 33 11 18 1011.7 1011.5 0.2
23/12:30am 28.6 32.2 23.7 75 3.4 E 11 19 6 10 1011.5 1011.3 0.0
23/12:00am 28.4 32.5 24.0 77 3.0 E 9 17 5 9 1011.5 1011.3 0.0
 
Date/Time
CST
Temp
°C
App
Temp
°C
Dew
Point
°C
Rel
Hum
%
Delta-T
°C
Wind Press
QNH
hPa
Press
MSL
hPa
Rain since
9am
mm
Dir  Spd
km/h
Gust
km/h
Spd
kts
Gust
kts
22/11:30pm 28.1 32.6 23.9 78 2.9 ENE 7 13 4 7 1011.5 1011.3 0.0
22/11:00pm 27.2 32.2 23.9 82 2.3 NE 4 7 2 4 1011.5 1011.3 0.0
22/10:30pm 27.0 32.0 23.9 83 2.1 NE 4 7 2 4 1011.6 1011.4 0.0
22/10:00pm 26.8 31.5 23.3 81 2.4 NE 4 6 2 3 1011.5 1011.3 0.0
22/09:30pm 26.5 31.0 23.0 81 2.4 NE 4 6 2 3 1011.5 1011.3 0.0
22/09:00pm 26.5 31.4 23.0 81 2.4 NE 2 4 1 2 1011.3 1011.1 0.0
22/08:30pm 26.6 31.2 23.1 81 2.4 NE 4 7 2 4 1011.2 1011.0 0.0
22/08:00pm 26.2 30.9 22.7 81 2.4 NE 2 4 1 2 1010.9 1010.7 0.0
22/07:30pm 26.6 31.4 22.2 77 3.0 CALM 0 4 0 2 1010.5 1010.3 0.0
22/07:00pm 27.5 32.0 22.2 73 3.6 NNE 2 6 1 3 1010.3 1010.1 0.0
22/06:30pm 28.3 32.4 22.3 70 4.1 NE 4 9 2 5 1010.0 1009.8 0.0
22/06:00pm 29.0 32.2 21.7 64 4.9 ENE 7 11 4 6 1009.7 1009.5 0.0
22/05:30pm 29.9 32.7 21.6 61 5.6 ENE 9 17 5 9 1009.3 1009.1 0.0
22/05:00pm 30.3 33.2 21.7 60 5.8 ENE 9 17 5 9 1009.2 1009.0 0.0
22/04:30pm 30.6 32.9 21.4 58 6.2 ENE 11 19 6 10 1009.1 1008.9 0.0
22/04:00pm 30.6 32.8 21.1 57 6.4 ENE 11 17 6 9 1009.2 1009.0 0.0
22/03:30pm 31.3 33.9 22.0 57 6.3 ENE 11 20 6 11 1009.2 1009.0 0.0
22/03:00pm 31.0 33.2 21.8 58 6.2 ENE 13 22 7 12 1009.5 1009.3 0.0
22/02:30pm 30.9 32.6 21.7 58 6.2 E 15 24 8 13 1009.8 1009.6 0.0
22/02:00pm 31.8 32.2 19.8 49 7.9 E 17 26 9 14 1010.2 1010.0 0.0
22/01:30pm 32.3 33.0 20.5 49 7.9 E 17 24 9 13 1010.5 1010.3 0.0
22/01:00pm 31.1 30.9 19.4 49 7.7 E 19 28 10 15 1010.9 1010.7 0.0
22/12:30pm 31.2 31.1 19.5 49 7.7 E 19 28 10 15 1011.3 1011.1 0.0
22/12:00pm 31.1 30.9 19.4 49 7.7 E 19 26 10 14 1011.8 1011.6 0.0
22/11:30am 30.6 30.2 19.3 51 7.4 ESE 20 28 11 15 1012.2 1012.0 0.0
22/11:00am 30.1 29.9 19.8 54 6.8 ESE 20 26 11 14 1012.5 1012.3 0.0
22/10:30am 29.1 29.7 21.1 62 5.3 ESE 19 28 10 15 1012.9 1012.7 0.0
22/10:00am 28.3 29.5 22.1 69 4.2 ESE 19 28 10 15 1012.9 1012.7 0.0
22/09:30am 27.9 29.1 22.2 71 3.8 ESE 19 28 10 15 1012.8 1012.6 0.0
22/09:00am 27.6 30.0 23.0 76 3.1 ESE 15 22 8 12 1012.6 1012.4 0.0
22/08:30am 26.9 29.2 22.7 78 2.8 ESE 15 22 8 12 1012.4 1012.2 0.0
22/08:00am 26.5 28.8 22.8 80 2.5 ESE 15 22 8 12 1012.2 1012.0 0.0
22/07:30am 25.6 28.2 22.7 84 2.0 ESE 13 20 7 11 1012.0 1011.8 0.0
22/07:00am 25.3 27.5 22.6 85 1.8 ESE 15 22 8 12 1011.8 1011.6 0.0
22/06:30am 25.3 27.8 22.4 84 1.9 ESE 13 19 7 10 1011.5 1011.3 0.0
22/06:00am 25.5 27.5 22.2 82 2.2 ESE 15 22 8 12 1011.4 1011.2 0.0
22/05:30am 25.6 27.4 21.9 80 2.5 ESE 15 24 8 13 1011.2 1011.0 0.0
22/05:00am 25.9 27.5 22.2 80 2.5 ESE 17 22 9 12 1011.3 1011.1 0.0
22/04:30am 26.0 27.9 22.1 79 2.6 ESE 15 26 8 14 1011.2 1011.0 0.0
22/04:00am 26.1 28.1 22.2 79 2.6 ESE 15 26 8 14 1011.0 1010.8 0.0
22/03:30am 26.3 28.3 22.2 78 2.8 ESE 15 22 8 12 1011.0 1010.8 0.0
22/03:00am 26.6 27.7 22.0 76 3.1 ESE 19 32 10 17 1011.1 1010.9 0.0
22/02:30am 26.8 27.9 22.0 75 3.2 ESE 19 30 10 16 1011.1 1010.9 0.0
22/02:00am 27.0 28.2 22.2 75 3.2 ESE 19 30 10 16 1011.3 1011.1 0.0
22/01:30am 27.2 28.0 21.7 72 3.7 ESE 20 33 11 18 1011.5 1011.3 0.0
22/01:00am 27.6 28.7 21.9 71 3.8 ESE 19 32 10 17 1011.6 1011.4 0.0
22/12:30am 27.9 28.8 21.9 70 4.0 ESE 20 37 11 20 1011.7 1011.5 0.0
22/12:00am 28.2 29.9 22.4 71 3.9 ESE 17 28 9 15 1011.8 1011.6 0.0
 
Date/Time
CST
Temp
°C
App
Temp
°C
Dew
Point
°C
Rel
Hum
%
Delta-T
°C
Wind Press
QNH
hPa
Press
MSL
hPa
Rain since
9am
mm
Dir  Spd
km/h
Gust
km/h
Spd
kts
Gust
kts
21/11:30pm 28.5 30.4 22.7 71 3.9 ESE 17 28 9 15 1011.9 1011.7 0.0
21/11:00pm 28.6 32.7 23.9 75 3.2 ESE 9 15 5 8 1011.8 1011.6 0.0
21/10:30pm 29.1 32.4 23.8 73 3.7 E 13 22 7 12 1011.7 1011.5 0.0
21/10:00pm 29.2 32.2 23.4 71 4.0 E 13 24 7 13 1011.7 1011.5 0.0

Other formats

Comma delimited format used in spreadsheet applications
http://www.bom.gov.au/fwo/IDD60801/IDD60801.94139.axf

JavaScript Object Notation format (JSON) in row-major order
http://www.bom.gov.au/fwo/IDD60801/IDD60801.94139.json

Data quality

Most of these data are generated automatically and are frequently updated. Quality checks on data are not normally performed. It is possible for incorrect values to appear. Refer to information at About Latest Weather Observations and please check the disclaimer before using these data.